createdAt,value
2023-05-23T00:01:25.719Z,99789.16
2023-05-23T00:03:56.545Z,99793.08
2023-05-23T00:06:32.159Z,99792.29
2023-05-23T00:09:03.129Z,99791.43
2023-05-23T00:11:31.264Z,99786.83
2023-05-23T00:14:03.614Z,99783.33
2023-05-23T00:16:34.295Z,99788.75
2023-05-23T00:19:05.538Z,99788.14
2023-05-23T00:21:34.074Z,99787.10
2023-05-23T00:24:04.986Z,99785.45
2023-05-23T00:26:33.503Z,99784.73
2023-05-23T00:29:04.945Z,99781.32
2023-05-23T00:31:33.246Z,99780.13
2023-05-23T00:34:01.500Z,99779.59
2023-05-23T00:36:29.673Z,99778.17
2023-05-23T00:38:57.995Z,99783.02
2023-05-23T00:41:29.209Z,99782.40
2023-05-23T00:44:00.056Z,99786.15
2023-05-23T00:46:29.990Z,99788.45
2023-05-23T00:48:58.554Z,99791.40
2023-05-23T00:51:28.202Z,99790.91
2023-05-23T00:53:56.664Z,99793.24
2023-05-23T00:56:26.987Z,99795.02
2023-05-23T00:58:55.436Z,99795.67
2023-05-23T01:01:24.546Z,99796.08
2023-05-23T01:04:04.682Z,99800.36
2023-05-23T01:06:36.460Z,99799.35
2023-05-23T01:09:04.908Z,99801.44
2023-05-23T01:11:42.222Z,99801.85
2023-05-23T01:14:22.293Z,99802.49
2023-05-23T01:17:03.835Z,99806.45
2023-05-23T01:19:47.347Z,99807.27
2023-05-23T01:22:49.486Z,99810.85
2023-05-23T01:25:36.391Z,99809.02
2023-05-23T01:28:10.050Z,99812.11
2023-05-23T01:30:41.988Z,99814.42
2023-05-23T01:33:13.487Z,99815.56
2023-05-23T01:35:43.942Z,99816.11
2023-05-23T01:38:12.452Z,99816.33
2023-05-23T01:40:41.898Z,99815.24
2023-05-23T01:43:14.926Z,99818.66
2023-05-23T01:45:44.126Z,99817.48
2023-05-23T01:48:14.724Z,99816.67
2023-05-23T01:50:45.640Z,99817.95
2023-05-23T01:53:19.851Z,99817.95
2023-05-23T01:55:48.910Z,99813.98
2023-05-23T01:58:22.036Z,99810.96
2023-05-23T02:00:50.537Z,99805.64
2023-05-23T02:03:20.169Z,99805.29
2023-05-23T02:05:49.790Z,99801.88
2023-05-23T02:08:22.517Z,99801.25
2023-05-23T02:10:51.911Z,99799.27
2023-05-23T02:13:21.832Z,99796.33
2023-05-23T02:15:50.103Z,99791.72
2023-05-23T02:18:18.467Z,99789.66
2023-05-23T02:20:47.061Z,99789.02
2023-05-23T02:23:15.313Z,99788.15
2023-05-23T02:25:44.874Z,99787.52
2023-05-23T02:28:15.864Z,99784.82
2023-05-23T02:30:43.856Z,99787.77
2023-05-23T02:33:12.402Z,99787.05
2023-05-23T02:35:41.036Z,99784.35
2023-05-23T02:38:11.575Z,99785.54
2023-05-23T02:40:42.203Z,99793.30
2023-05-23T02:43:12.969Z,99794.59
2023-05-23T02:45:41.400Z,99792.29
2023-05-23T02:48:17.689Z,99797.93
2023-05-23T02:50:49.081Z,99799.20
2023-05-23T02:53:24.435Z,99800.70
2023-05-23T02:55:52.771Z,99795.39
2023-05-23T02:58:21.192Z,99797.23
2023-05-23T03:00:49.440Z,99798.09
2023-05-23T03:03:18.684Z,99802.55
2023-05-23T03:05:47.038Z,99802.55
2023-05-23T03:08:15.358Z,99806.19
2023-05-23T03:10:43.547Z,99812.63
2023-05-23T03:13:12.105Z,99816.77
2023-05-23T03:15:41.148Z,99813.50
2023-05-23T03:18:09.396Z,99811.27
2023-05-23T03:20:37.784Z,99813.51
2023-05-23T03:23:06.038Z,99816.50
2023-05-23T03:25:35.029Z,99814.91
2023-05-23T03:28:03.161Z,99810.06
2023-05-23T03:30:31.386Z,99808.23
2023-05-23T03:32:59.498Z,99796.50
2023-05-23T03:35:27.747Z,99796.98
2023-05-23T03:37:56.433Z,99797.98
2023-05-23T03:40:24.757Z,99793.52
2023-05-23T03:43:04.816Z,99792.97
2023-05-23T03:45:34.398Z,99784.58
2023-05-23T03:48:03.965Z,99789.50
2023-05-23T03:50:32.283Z,99784.19
2023-05-23T03:53:00.653Z,99786.33
2023-05-23T03:55:31.963Z,99791.06
2023-05-23T03:58:00.746Z,99791.71
2023-05-23T04:00:28.916Z,99792.66
2023-05-23T04:02:57.487Z,99792.00
2023-05-23T04:05:26.385Z,99791.85
2023-05-23T04:07:54.923Z,99793.61
2023-05-23T04:10:23.238Z,99793.01
2023-05-23T04:13:09.951Z,99798.23
2023-05-23T04:15:40.071Z,99801.73
2023-05-23T04:18:11.613Z,99800.23
2023-05-23T04:20:39.751Z,99799.26
2023-05-23T04:23:07.796Z,99799.62
2023-05-23T04:25:39.752Z,99799.40
2023-05-23T04:28:20.797Z,99797.92
2023-05-23T04:30:52.398Z,99801.52
2023-05-23T04:33:24.934Z,99799.08
2023-05-23T04:35:53.447Z,99796.77
2023-05-23T04:38:23.107Z,99800.95
2023-05-23T04:40:52.830Z,99801.89
2023-05-23T04:43:42.631Z,99797.43
2023-05-23T04:46:45.655Z,99796.42
2023-05-23T04:49:23.921Z,99799.17
2023-05-23T04:51:52.648Z,99798.70
2023-05-23T04:54:26.826Z,99794.89
2023-05-23T04:56:58.532Z,99795.23
2023-05-23T04:59:28.538Z,99792.93
2023-05-23T05:01:57.263Z,99793.69
2023-05-23T05:04:28.216Z,99791.63
2023-05-23T05:07:29.553Z,99791.44
2023-05-23T05:10:06.246Z,99795.04
2023-05-23T05:12:35.673Z,99793.23
2023-05-23T05:15:14.255Z,99791.34
2023-05-23T05:17:55.049Z,99794.92
2023-05-23T05:20:34.710Z,99794.67
2023-05-23T05:23:03.765Z,99791.92
2023-05-23T05:25:36.466Z,99791.73
2023-05-23T05:28:06.583Z,99793.07
2023-05-23T05:30:46.461Z,99794.36
2023-05-23T05:33:15.208Z,99789.97
2023-05-23T05:35:44.121Z,99790.65
2023-05-23T05:38:15.783Z,99793.48
2023-05-23T05:40:47.361Z,99792.48
2023-05-23T05:43:16.328Z,99793.37
2023-05-23T05:46:03.493Z,99794.77
2023-05-23T05:48:36.279Z,99792.20
2023-05-23T05:51:10.641Z,99794.09
2023-05-23T05:54:15.454Z,99792.45
2023-05-23T05:56:47.818Z,99790.61
2023-05-23T05:59:32.326Z,99794.88
2023-05-23T06:02:08.381Z,99799.18
2023-05-23T06:04:37.276Z,99799.41
2023-05-23T06:07:08.004Z,99797.59
2023-05-23T06:09:54.671Z,99801.80
2023-05-23T06:12:27.721Z,99798.36
2023-05-23T06:14:56.226Z,99797.19
2023-05-23T06:17:28.753Z,99798.45
2023-05-23T06:19:57.124Z,99796.89
2023-05-23T06:22:28.262Z,99799.48
2023-05-23T06:24:56.779Z,99799.56
2023-05-23T06:27:29.344Z,99804.33
2023-05-23T06:29:57.794Z,99803.87
2023-05-23T06:32:26.245Z,99801.36
2023-05-23T06:34:59.602Z,99801.73
2023-05-23T06:37:27.745Z,99799.88
2023-05-23T06:39:57.525Z,99801.52
2023-05-23T06:42:27.337Z,99798.04
2023-05-23T06:45:08.010Z,99798.59
2023-05-23T06:47:37.699Z,99800.67
2023-05-23T06:50:06.763Z,99799.24
2023-05-23T06:52:37.186Z,99799.94
2023-05-23T06:55:06.765Z,99800.74
2023-05-23T06:57:37.222Z,99799.72
2023-05-23T07:00:06.297Z,99801.15
2023-05-23T07:02:40.283Z,99800.21
2023-05-23T07:05:13.187Z,99802.11
2023-05-23T07:07:49.484Z,99801.70
2023-05-23T07:10:19.940Z,99802.63
2023-05-23T07:12:48.548Z,99802.15
2023-05-23T07:15:17.196Z,99805.23
2023-05-23T07:17:55.877Z,99804.95
2023-05-23T07:20:26.208Z,99801.84
2023-05-23T07:23:01.546Z,99800.61
2023-05-23T07:25:30.615Z,99801.62
2023-05-23T07:28:01.390Z,99799.77
2023-05-23T07:30:34.366Z,99796.73
2023-05-23T07:33:02.733Z,99796.98
2023-05-23T07:35:31.171Z,99797.45
2023-05-23T07:38:10.315Z,99797.09
2023-05-23T07:40:40.563Z,99798.41
2023-05-23T07:43:17.528Z,99799.50
2023-05-23T07:45:45.789Z,99805.45
2023-05-23T07:48:14.382Z,99804.63
2023-05-23T07:50:43.713Z,99803.44
2023-05-23T07:53:14.911Z,99800.85
2023-05-23T07:55:43.332Z,99797.12
2023-05-23T07:58:12.024Z,99797.27
2023-05-23T08:00:41.963Z,99797.77
2023-05-23T08:03:13.624Z,99798.80
2023-05-23T08:05:50.471Z,99795.83
2023-05-23T08:08:24.295Z,99787.08
2023-05-23T08:10:52.544Z,99785.97
2023-05-23T08:13:37.115Z,99788.54
2023-05-23T08:16:28.252Z,99789.21
2023-05-23T08:18:57.540Z,99792.89
2023-05-23T08:21:27.428Z,99792.10
2023-05-23T08:23:55.885Z,99790.27
2023-05-23T08:26:26.595Z,99791.73
2023-05-23T08:29:03.756Z,99784.73
2023-05-23T08:31:37.257Z,99785.42
2023-05-23T08:34:07.753Z,99787.70
2023-05-23T08:36:40.243Z,99789.88
2023-05-23T08:39:20.748Z,99792.03
2023-05-23T08:42:17.035Z,99799.00
2023-05-23T08:44:45.568Z,99797.48
2023-05-23T08:47:19.959Z,99796.70
2023-05-23T08:50:09.177Z,99792.97
2023-05-23T08:52:45.960Z,99791.94
2023-05-23T08:55:17.774Z,99791.98
2023-05-23T08:57:57.682Z,99791.22
2023-05-23T09:00:36.542Z,99788.47
2023-05-23T09:03:07.333Z,99789.82
2023-05-23T09:06:02.715Z,99789.77
2023-05-23T09:08:37.179Z,99790.62
2023-05-23T09:11:07.112Z,99786.79
2023-05-23T09:13:37.733Z,99787.91
2023-05-23T09:16:15.397Z,99786.64
2023-05-23T09:19:00.779Z,99787.98
2023-05-23T09:21:35.974Z,99787.52
2023-05-23T09:24:19.373Z,99784.67
2023-05-23T09:26:51.155Z,99785.06
2023-05-23T09:29:21.651Z,99780.77
2023-05-23T09:31:52.361Z,99776.23
2023-05-23T09:34:21.955Z,99777.83
2023-05-23T09:36:55.837Z,99777.88
2023-05-23T09:39:26.485Z,99776.48
2023-05-23T09:41:54.686Z,99775.75
2023-05-23T09:44:33.404Z,99775.98
2023-05-23T09:47:07.472Z,99777.27
2023-05-23T09:49:37.718Z,99776.30
2023-05-23T09:52:06.017Z,99779.58
2023-05-23T09:54:37.637Z,99779.08
2023-05-23T09:57:11.200Z,99776.96
2023-05-23T09:59:41.556Z,99773.64
2023-05-23T10:02:12.421Z,99774.52
2023-05-23T10:04:48.687Z,99771.60
2023-05-23T10:07:22.479Z,99769.51
2023-05-23T10:10:03.496Z,99766.21
2023-05-23T10:12:50.117Z,99763.21
2023-05-23T10:15:49.661Z,99756.23
2023-05-23T10:18:26.370Z,99748.91
2023-05-23T10:21:24.655Z,99745.49
2023-05-23T10:23:57.299Z,99743.02
2023-05-23T10:26:28.699Z,99739.55
2023-05-23T10:28:58.319Z,99732.68
2023-05-23T10:31:30.455Z,99729.31
2023-05-23T10:34:19.540Z,99728.42
2023-05-23T10:37:07.937Z,99724.76
2023-05-23T10:39:55.081Z,99726.16
2023-05-23T10:42:53.749Z,99725.63
2023-05-23T10:45:24.468Z,99722.06
2023-05-23T10:47:53.806Z,99721.39
2023-05-23T10:50:41.895Z,99720.88
2023-05-23T10:55:49.313Z,99717.58
2023-05-23T10:58:23.086Z,99713.10
2023-05-23T11:00:56.185Z,99710.16
2023-05-23T11:03:32.027Z,99705.66
2023-05-23T11:06:01.153Z,99706.38
2023-05-23T11:08:47.160Z,99709.65
2023-05-23T11:11:17.381Z,99707.65
2023-05-23T11:14:00.046Z,99704.85
2023-05-23T11:16:30.539Z,99699.05
2023-05-23T11:19:22.102Z,99695.54
2023-05-23T11:21:53.909Z,99690.23
2023-05-23T11:24:22.430Z,99687.33
2023-05-23T11:27:04.220Z,99682.66
2023-05-23T11:29:35.532Z,99681.27
2023-05-23T11:32:16.850Z,99681.60
2023-05-23T11:34:45.832Z,99679.17
2023-05-23T11:37:14.297Z,99677.95
2023-05-23T11:39:42.545Z,99674.38
2023-05-23T11:42:10.614Z,99671.20
2023-05-23T11:44:38.736Z,99668.34
2023-05-23T11:47:09.041Z,99667.24
2023-05-23T11:49:40.377Z,99665.44
2023-05-23T11:52:31.925Z,99662.31
2023-05-23T11:55:16.419Z,99663.14
2023-05-23T11:57:46.352Z,99662.17
2023-05-23T12:00:15.318Z,99657.56
2023-05-23T12:02:47.912Z,99655.02
2023-05-23T12:05:16.728Z,99656.58
2023-05-23T12:07:50.766Z,99655.68
2023-05-23T12:10:22.020Z,99652.20
2023-05-23T12:12:51.932Z,99652.51
2023-05-23T12:19:18.043Z,99645.64
2023-05-23T12:22:05.784Z,99641.86
2023-05-23T12:24:55.086Z,99636.30
2023-05-23T12:27:39.771Z,99633.42
2023-05-23T12:30:18.329Z,99636.80
2023-05-23T12:32:47.590Z,99635.23
2023-05-23T12:35:26.005Z,99635.29
2023-05-23T12:37:56.739Z,99631.27
2023-05-23T12:40:25.014Z,99632.71
2023-05-23T12:42:56.830Z,99629.56
2023-05-23T12:45:36.883Z,99625.96
2023-05-23T12:48:07.696Z,99620.65
2023-05-23T12:51:03.302Z,99618.38
2023-05-23T12:53:36.577Z,99616.30
2023-05-23T12:56:05.620Z,99620.33
2023-05-23T12:58:35.278Z,99617.73
2023-05-23T13:01:03.730Z,99616.52
2023-05-23T13:03:32.352Z,99613.23
2023-05-23T13:06:00.741Z,99612.06
2023-05-23T13:08:29.685Z,99613.46
2023-05-23T13:10:57.989Z,99613.49
2023-05-23T13:13:26.842Z,99611.88
2023-05-23T13:16:04.590Z,99602.35
2023-05-23T13:18:32.765Z,99595.73
2023-05-23T13:21:01.504Z,99599.12
2023-05-23T13:23:30.976Z,99600.38
2023-05-23T13:25:59.166Z,99601.73
2023-05-23T13:28:27.385Z,99600.60
2023-05-23T13:30:55.607Z,99600.53
2023-05-23T13:33:23.873Z,99594.89
2023-05-23T13:35:52.602Z,99593.87
2023-05-23T13:38:21.116Z,99594.48
2023-05-23T13:40:52.665Z,99594.28
2023-05-23T13:43:24.014Z,99592.31
2023-05-23T13:45:53.680Z,99588.04
2023-05-23T13:48:21.816Z,99585.33
2023-05-23T13:50:50.101Z,99586.73
2023-05-23T13:53:18.222Z,99592.30
2023-05-23T13:55:46.708Z,99596.41
2023-05-23T13:58:20.941Z,99603.95
2023-05-23T14:00:51.274Z,99604.90
2023-05-23T14:03:25.622Z,99611.13
2023-05-23T14:05:54.863Z,99622.48
2023-05-23T14:08:25.967Z,99625.40
2023-05-23T14:10:54.046Z,99620.92
2023-05-23T14:13:23.249Z,99624.44
2023-05-23T14:15:52.068Z,99620.00
2023-05-23T14:18:27.419Z,99612.95
2023-05-23T14:20:55.551Z,99614.11
2023-05-23T14:23:26.286Z,99616.15
2023-05-23T14:26:00.768Z,99611.92
2023-05-23T14:28:29.298Z,99611.98
2023-05-23T14:30:57.583Z,99611.41
2023-05-23T14:33:26.811Z,99607.69
2023-05-23T14:35:57.178Z,99605.41
2023-05-23T14:38:26.078Z,99596.36
2023-05-23T14:40:54.938Z,99593.23
2023-05-23T14:43:27.154Z,99587.80
2023-05-23T14:45:55.561Z,99583.73
2023-05-23T14:48:23.805Z,99584.45
2023-05-23T14:51:02.534Z,99584.38
2023-05-23T14:53:36.676Z,99582.09
2023-05-23T14:56:04.692Z,99581.07
2023-05-23T14:58:33.776Z,99576.08
2023-05-23T15:01:02.580Z,99578.69
2023-05-23T15:03:30.656Z,99579.37
2023-05-23T15:06:00.221Z,99581.60
2023-05-23T15:08:30.600Z,99580.59
2023-05-23T15:10:59.132Z,99576.18
2023-05-23T15:13:33.526Z,99575.69
2023-05-23T15:16:04.838Z,99571.15
2023-05-23T15:18:41.554Z,99566.12
2023-05-23T15:21:10.886Z,99568.34
2023-05-23T15:23:39.168Z,99564.91
2023-05-23T15:26:13.440Z,99567.10
2023-05-23T15:28:41.766Z,99564.27
2023-05-23T15:31:09.966Z,99560.16
2023-05-23T15:33:41.055Z,99555.61
2023-05-23T15:36:17.695Z,99548.22
2023-05-23T15:38:47.367Z,99547.50
2023-05-23T15:41:33.140Z,99541.09
2023-05-23T15:44:01.416Z,99541.73
2023-05-23T15:46:32.605Z,99539.97
2023-05-23T15:49:10.280Z,99540.56
2023-05-23T15:51:47.875Z,99544.56
2023-05-23T15:54:22.771Z,99548.77
2023-05-23T15:56:56.617Z,99549.85
2023-05-23T15:59:24.943Z,99552.00
2023-05-23T16:02:25.166Z,99549.05
2023-05-23T16:05:23.369Z,99549.30
2023-05-23T16:07:56.243Z,99549.41
2023-05-23T16:10:28.700Z,99546.92
2023-05-23T16:13:10.104Z,99542.17
2023-05-23T16:16:22.118Z,99538.46
2023-05-23T16:18:50.734Z,99545.29
2023-05-23T16:21:26.914Z,99546.48
2023-05-23T16:24:11.107Z,99547.98
2023-05-23T16:27:09.497Z,99550.04
2023-05-23T16:29:46.463Z,99550.27
2023-05-23T16:32:16.364Z,99551.96
2023-05-23T16:34:53.306Z,99558.33
2023-05-23T16:37:53.031Z,99561.77
2023-05-23T16:40:28.805Z,99561.09
2023-05-23T16:43:15.162Z,99559.54
2023-05-23T16:45:43.968Z,99558.36
2023-05-23T16:48:14.170Z,99559.61
2023-05-23T16:50:44.979Z,99562.10
2023-05-23T16:53:13.350Z,99558.45
2023-05-23T16:55:54.055Z,99562.56
2023-05-23T16:58:32.663Z,99565.75
2023-05-23T17:01:07.982Z,99559.46
2023-05-23T17:03:36.644Z,99558.83
2023-05-23T17:06:08.332Z,99558.35
2023-05-23T17:08:52.386Z,99562.38
2023-05-23T17:11:23.101Z,99563.80
2023-05-23T17:13:54.676Z,99564.01
2023-05-23T17:16:37.903Z,99561.13
2023-05-23T17:19:09.596Z,99565.23
2023-05-23T17:21:43.559Z,99564.44
2023-05-23T17:24:13.613Z,99571.36
2023-05-23T17:26:42.229Z,99575.02
2023-05-23T17:29:10.851Z,99576.41
2023-05-23T17:31:39.424Z,99572.80
2023-05-23T17:34:43.138Z,99568.36
2023-05-23T17:37:10.075Z,99569.77
2023-05-23T17:39:51.867Z,99571.83
2023-05-23T17:42:23.058Z,99567.62
2023-05-23T17:45:28.828Z,99566.81
2023-05-23T17:48:17.364Z,99569.30
2023-05-23T17:50:51.992Z,99575.39
2023-05-23T18:12:31.328Z,99599.12
2023-05-23T18:14:13.698Z,99604.63
2023-05-23T18:18:29.491Z,99612.48
2023-05-23T18:21:35.908Z,99616.16
2023-05-23T18:24:13.128Z,99619.44
2023-05-23T18:26:46.001Z,99619.30
2023-05-23T18:29:16.925Z,99624.86
2023-05-23T18:31:45.819Z,99627.42
2023-05-23T18:34:17.217Z,99629.74
2023-05-23T18:36:45.754Z,99636.33
2023-05-23T18:39:16.873Z,99642.77
2023-05-23T18:41:56.961Z,99648.87
2023-05-23T18:44:30.134Z,99650.93
2023-05-23T18:47:21.479Z,99652.50
2023-05-23T18:50:26.011Z,99657.77
2023-05-23T18:52:57.014Z,99660.91
2023-05-23T18:55:31.569Z,99661.06
2023-05-23T18:57:59.816Z,99661.48
2023-05-23T19:00:44.679Z,99662.79
2023-05-23T19:03:16.585Z,99665.59
2023-05-23T19:05:45.108Z,99668.41
2023-05-23T19:08:17.186Z,99671.94
2023-05-23T19:10:48.829Z,99672.40
2023-05-23T19:13:23.349Z,99674.54
2023-05-23T19:15:51.696Z,99676.47
2023-05-23T19:18:20.687Z,99678.53
2023-05-23T19:20:51.600Z,99686.96
2023-05-23T19:23:19.635Z,99695.05
2023-05-23T19:25:52.303Z,99709.89
2023-05-23T19:28:22.201Z,99721.75
2023-05-23T19:30:50.390Z,99724.63
2023-05-23T19:33:22.240Z,99724.95
2023-05-23T19:35:50.214Z,99722.50
2023-05-23T19:38:18.878Z,99722.36
2023-05-23T19:40:47.692Z,99731.70
2023-05-23T19:43:15.771Z,99733.95
2023-05-23T19:45:43.783Z,99733.60
2023-05-23T19:48:12.276Z,99728.17
2023-05-23T19:50:43.207Z,99725.06
2023-05-23T19:53:16.481Z,99726.05
2023-05-23T19:55:52.945Z,99728.40
2023-05-23T19:58:43.358Z,99732.36
2023-05-23T20:01:11.680Z,99734.33
2023-05-23T20:03:57.703Z,99736.02
2023-05-23T20:09:36.813Z,99734.32
2023-05-23T20:12:39.553Z,99735.91
2023-05-23T20:15:39.357Z,99735.48
2023-05-23T20:18:22.374Z,99735.64
2023-05-23T20:20:53.893Z,99732.32
2023-05-23T20:23:24.337Z,99729.77
2023-05-23T20:25:52.931Z,99729.77
2023-05-23T20:28:23.297Z,99729.11
2023-05-23T20:30:59.683Z,99726.38
2023-05-23T20:33:37.408Z,99721.91
2023-05-23T20:36:06.788Z,99715.23
2023-05-23T20:38:35.328Z,99716.48
2023-05-23T20:41:09.066Z,99712.02
2023-05-23T20:43:39.862Z,99708.65
2023-05-23T20:46:13.894Z,99709.23
2023-05-23T20:48:42.311Z,99709.48
2023-05-23T20:51:10.288Z,99708.27
2023-05-23T20:53:40.556Z,99706.40
2023-05-23T20:56:10.363Z,99700.29
2023-05-23T20:58:40.244Z,99702.20
2023-05-23T21:01:08.468Z,99704.80
2023-05-23T21:03:36.765Z,99701.44
2023-05-23T21:06:05.155Z,99699.35
2023-05-23T21:08:34.632Z,99700.76
2023-05-23T21:11:03.281Z,99703.80
2023-05-23T21:13:31.370Z,99698.81
2023-05-23T21:15:59.629Z,99704.45
2023-05-23T21:18:27.558Z,99706.84
2023-05-23T21:20:55.509Z,99709.14
2023-05-23T21:23:23.855Z,99715.83
2023-05-23T21:26:01.954Z,99731.34
2023-05-23T21:28:30.372Z,99750.91
2023-05-23T21:31:08.846Z,99751.79
2023-05-23T21:33:36.858Z,99750.59
2023-05-23T21:36:05.198Z,99741.17
2023-05-23T21:38:39.923Z,99740.20
2023-05-23T21:41:07.889Z,99740.63
2023-05-23T21:43:35.704Z,99740.48
2023-05-23T21:46:03.719Z,99743.95
2023-05-23T21:48:31.586Z,99747.05
2023-05-23T21:50:59.652Z,99744.23
2023-05-23T21:53:27.635Z,99743.02
2023-05-23T21:55:55.592Z,99743.09
2023-05-23T21:58:23.555Z,99741.00
2023-05-23T22:00:51.368Z,99741.98
2023-05-23T22:03:19.415Z,99742.60
2023-05-23T22:05:47.332Z,99745.61
2023-05-23T22:08:16.234Z,99745.91
2023-05-23T22:10:44.393Z,99748.46
2023-05-23T22:13:12.438Z,99751.34
2023-05-23T22:15:40.638Z,99752.27
2023-05-23T22:18:08.509Z,99757.73
2023-05-23T22:20:39.343Z,99761.42
2023-05-23T22:23:09.405Z,99759.10
2023-05-23T22:25:38.468Z,99760.90
2023-05-23T22:28:06.503Z,99766.97
2023-05-23T22:30:35.534Z,99767.62
2023-05-23T22:33:03.502Z,99768.36
2023-05-23T22:35:32.125Z,99772.16
2023-05-23T22:38:00.087Z,99773.56
2023-05-23T22:40:27.962Z,99774.72
2023-05-23T22:42:55.833Z,99778.17
2023-05-23T22:45:23.861Z,99778.67
2023-05-23T22:47:54.315Z,99777.21
2023-05-23T22:50:22.805Z,99778.36
2023-05-23T22:52:50.795Z,99782.94
2023-05-23T22:55:19.253Z,99782.42
2023-05-23T22:57:47.193Z,99784.84
2023-05-23T23:00:15.256Z,99782.35
2023-05-23T23:02:44.617Z,99782.40
2023-05-23T23:05:13.178Z,99781.77
2023-05-23T23:07:41.334Z,99780.66
2023-05-23T23:10:10.048Z,99786.30
2023-05-23T23:12:38.301Z,99788.54
2023-05-23T23:15:07.659Z,99792.61
2023-05-23T23:17:35.677Z,99797.96
2023-05-23T23:20:07.928Z,99806.73
2023-05-23T23:22:36.624Z,99813.27
2023-05-23T23:25:06.797Z,99817.84
2023-05-23T23:27:34.754Z,99823.13
2023-05-23T23:30:05.303Z,99831.28
2023-05-23T23:32:34.543Z,99827.14
2023-05-23T23:35:03.056Z,99821.84
2023-05-23T23:37:30.884Z,99822.77
2023-05-23T23:39:58.986Z,99825.98
2023-05-23T23:42:27.177Z,99833.45
2023-05-23T23:44:55.195Z,99843.64
2023-05-23T23:47:23.301Z,99843.92
2023-05-23T23:49:52.392Z,99839.64
2023-05-23T23:52:20.669Z,99839.37
2023-05-23T23:54:48.661Z,99839.30
